createdAt,value
2023-02-19T00:12:38.835Z,93939.66
2023-02-19T00:27:40.403Z,93894.56
2023-02-19T00:42:41.910Z,93896.88
2023-02-19T00:57:43.422Z,93872.41
2023-02-19T01:12:44.976Z,93847.94
2023-02-19T01:27:46.556Z,93881.59
2023-02-19T01:42:48.235Z,93906.78
2023-02-19T01:57:52.745Z,93920.56
2023-02-19T02:12:56.944Z,93890.75
2023-02-19T02:27:58.486Z,93919.41
2023-02-19T02:43:00.198Z,93924.38
2023-02-19T02:58:02.107Z,93912.16
2023-02-19T03:13:24.680Z,93902.22
2023-02-19T03:28:47.194Z,93932.00
2023-02-19T03:43:52.703Z,93950.75
2023-02-19T03:59:05.434Z,93951.50
2023-02-19T04:14:09.981Z,93982.47
2023-02-19T05:02:18.357Z,93992.41
2023-02-19T05:17:20.033Z,93999.66
2023-02-19T05:32:21.657Z,94012.66
2023-02-19T05:47:23.249Z,94027.19
2023-02-19T06:02:24.786Z,94034.03
2023-02-19T06:17:26.360Z,94058.88
2023-02-19T06:32:27.980Z,94062.69
2023-02-19T06:47:33.070Z,94056.94
2023-02-19T07:02:34.648Z,94072.97
2023-02-19T07:17:36.139Z,94084.81
2023-02-19T07:32:40.846Z,94065.31
2023-02-19T07:47:42.397Z,94042.72
2023-02-19T08:03:02.277Z,94042.72
2023-02-19T08:18:03.944Z,94030.44
2023-02-19T08:33:06.773Z,94039.22
2023-02-19T08:48:08.767Z,94033.13
2023-02-19T09:03:10.753Z,94021.25
2023-02-19T09:18:12.344Z,93990.63
2023-02-19T09:33:13.871Z,93992.16
2023-02-19T09:48:15.595Z,93979.84
2023-02-19T10:03:39.321Z,93946.94
2023-02-19T10:18:42.458Z,93916.66
2023-02-19T10:33:52.976Z,93885.25
2023-02-19T10:49:02.681Z,93861.06
2023-02-19T11:04:17.430Z,93827.72
2023-02-19T11:19:37.820Z,93805.09
2023-02-19T11:34:39.570Z,93785.53
2023-02-19T11:49:47.117Z,93764.41
2023-02-19T12:05:00.890Z,93743.00
2023-02-19T12:20:02.494Z,93723.41
2023-02-19T12:35:13.205Z,93696.50
2023-02-19T12:50:14.683Z,93667.34
2023-02-19T13:05:22.563Z,93642.41
2023-02-19T13:20:27.551Z,93628.53
2023-02-19T14:07:48.605Z,93577.13
2023-02-19T14:22:58.343Z,93567.94
2023-02-19T14:38:00.272Z,93551.06
2023-02-19T14:53:04.571Z,93541.22
2023-02-19T15:08:12.202Z,93505.91
2023-02-19T15:23:18.782Z,93513.94
2023-02-19T15:38:20.676Z,93515.16
2023-02-19T15:53:24.669Z,93542.72
2023-02-19T16:08:34.399Z,93578.41
2023-02-19T16:23:36.518Z,93581.91
2023-02-19T16:38:38.120Z,93584.94
2023-02-19T16:53:39.700Z,93594.13
2023-02-19T17:08:42.442Z,93615.59
2023-02-19T17:23:43.983Z,93629.41
2023-02-19T17:38:45.669Z,93656.16
2023-02-19T17:53:47.230Z,93661.16
2023-02-19T18:08:50.155Z,93673.06
2023-02-19T18:23:51.639Z,93698.34
2023-02-19T18:38:53.228Z,93721.34
2023-02-19T18:53:54.834Z,93731.31
2023-02-19T19:08:58.384Z,93748.97
2023-02-19T19:24:00.124Z,93767.38
2023-02-19T19:39:01.860Z,93782.69
2023-02-19T19:54:04.396Z,93789.63
2023-02-19T20:09:05.999Z,93812.25
2023-02-19T20:24:07.676Z,93824.91
2023-02-19T20:39:09.282Z,93846.34
2023-02-19T20:54:10.848Z,93860.91
2023-02-19T21:09:12.440Z,93879.28
2023-02-19T21:24:14.789Z,93888.09
2023-02-19T21:39:17.639Z,93891.59
2023-02-19T21:54:24.840Z,93889.28
2023-02-19T22:09:26.501Z,93909.59
2023-02-19T22:24:28.117Z,93923.00
2023-02-19T22:39:29.653Z,93961.31
2023-02-19T22:54:31.238Z,93974.34
2023-02-19T23:09:32.780Z,93949.84
2023-02-19T23:24:34.256Z,93936.84
2023-02-19T23:39:36.128Z,93935.69
2023-02-19T23:54:37.716Z,93964.81
